Airfield :
LOGIN :

Register | Disclaimer

   EN    FR    IT 

 










Legend :    VFR   Marginal VFR   IFR   Intensive IFR   Very Intensive IFR
Visi :
Ceiling :
>= 8 km
>= 3000ft
5 to 8 km
1000 to 3000 ft
1500m to 5 km
500 to 1000 ft
800 to 1500m
200 to 500 ft
< 800m
< 200 ft
Symbols :   Thunderstorms  Fog  Heavy snow  Heavy precipitations  Wind > 20 kt
SIGMETs :     Misc.  Thunderstorms  Icing  Turbulence  Mountain Waves  Volcanic Ashes







- Airport Elevation : 527 ft
- IATA code : DBV


LDDU - Dubrovnik

CURRENT METAR :
  • 152230Z VRB04KT CAVOK 24/11 Q1020

EXPIRED METARs :
  • 152200Z VRB03KT CAVOK 24/11 Q1021
  • 152130Z VRB03KT CAVOK 24/11 Q1021 NOSIG
  • 152100Z VRB05KT CAVOK 24/11 Q1021 NOSIG
  • 152030Z 30006KT 280V340 CAVOK 23/14 Q1021 NOSIG
  • 152000Z 30006KT CAVOK 22/14 Q1021 NOSIG

TAF TAF LDDU
Valid from the 15 at 18:00 until the 16 at 18:00 UTC


151725Z 1518/1618 30008KT CAVOK TX27/1612Z TN20/1605Z
BECMG 1518/1520 02009KT
BECMG 1610/1612 29009KT
No reported NOTAMs for that airfield.



MET'MAP, your aeronautical weather chart ! - Copyright ORBIFLY December 2007 - Disclaimer

ORBIFLY MET'MAP TEAM :

Programming & Development : Alexandra Zaïnal
Concept & Development : Baudouin d'Aumeries
Co-Development & Prog : Marc-Olivier Méhu
Technical & hardware support : Manuel Goepfert

Contact : metmap@orbifly.com




SOURCES & CREDITS :

   NOAA